Terminal Aerodrome Forecast
Issued by NWS North Platte, NE

Home | Current Version | Previous Version | Text Only | Print | Product List | Glossary On
Versions: 1 2 3 4 5 6 7 8 9 10 11 12 13 14 15 16 17 18
000
FTUS43 KLBF 221400 AAA
TAFLBF
TAF AMD
KLBF 221442Z 2215/2312 28010KT P6SM BKN090
     FM221600 30014G23KT P6SM SCT050 BKN080
     FM221900 31020G28KT P6SM SCT050 BKN080
     FM230000 31015G23KT P6SM BKN040 OVC080
     FM230400 32015G23KT P6SM -SN BKN020 OVC040
     FM230600 32017G25KT 4SM -SN BR OVC015=

USA.gov is the U.S. government's official web portal to all federal, state and local government web resources and services.